Time;durP1;ratioP1;P1;durP2;ratioP2;P2;SDS_P1;SDS_P2;PMS_P1;PMS_P2;Temp;Humidity;BMP_temperature;BMP_pressure;BME280_temperature;BME280_humidity;BME280_pressure;Samples;Min_cycle;Max_cycle;Signal;HPM_P1;HPM_P2
2023/01/22 00:00:14;;;;;;;1.70;1.60;;;1.20;98.20;;;;;;5018996;28;20583;-71
2023/01/22 00:02:41;;;;;;;1.70;1.57;;;1.30;98.20;;;;;;5011596;28;20611;-72
2023/01/22 00:05:09;;;;;;;1.70;1.50;;;1.30;98.20;;;;;;5010039;28;20488;-72
2023/01/22 00:07:38;;;;;;;1.63;1.43;;;1.30;98.20;;;;;;5008083;28;20521;-70
2023/01/22 00:10:05;;;;;;;1.60;1.50;;;1.40;98.20;;;;;;5010985;28;20481;-71
2023/01/22 00:12:32;;;;;;;1.67;1.40;;;1.40;98.20;;;;;;5013341;28;20847;-72
2023/01/22 00:14:59;;;;;;;1.63;1.50;;;1.40;98.20;;;;;;5010315;28;20480;-71
2023/01/22 00:17:26;;;;;;;1.63;1.50;;;1.40;98.20;;;;;;4994458;28;20484;-71
2023/01/22 00:19:53;;;;;;;1.70;1.60;;;1.40;98.20;;;;;;5009450;28;20463;-71
2023/01/22 00:22:21;;;;;;;1.60;1.50;;;1.40;98.20;;;;;;5010848;28;20502;-71
2023/01/22 00:24:49;;;;;;;1.70;1.60;;;1.40;98.20;;;;;;5016291;28;22459;-71
2023/01/22 00:27:16;;;;;;;1.73;1.63;;;1.40;98.20;;;;;;4996125;28;20489;-71
2023/01/22 00:29:42;;;;;;;1.80;1.70;;;1.40;98.20;;;;;;5016459;28;20470;-72
2023/01/22 00:32:09;;;;;;;1.67;1.50;;;1.40;98.20;;;;;;4988961;28;20484;-72
2023/01/22 00:34:36;;;;;;;1.67;1.50;;;1.40;98.20;;;;;;5010533;28;20877;-71
2023/01/22 00:37:03;;;;;;;2.33;2.13;;;1.40;98.20;;;;;;4999503;28;21903;-72
2023/01/22 00:39:30;;;;;;;1.70;1.60;;;1.40;98.20;;;;;;5010348;28;20464;-72
2023/01/22 00:41:58;;;;;;;1.70;1.50;;;1.40;98.20;;;;;;5010058;28;20926;-71
2023/01/22 00:44:25;;;;;;;1.63;1.50;;;1.40;98.20;;;;;;5018760;28;20491;-71
2023/01/22 00:46:52;;;;;;;1.93;1.80;;;1.40;98.20;;;;;;4998324;28;20480;-73
2023/01/22 00:49:19;;;;;;;1.73;1.63;;;1.40;98.20;;;;;;5008089;28;20460;-72
2023/01/22 00:51:46;;;;;;;1.70;1.50;;;1.40;98.20;;;;;;5002924;28;20480;-71
2023/01/22 00:54:16;;;;;;;1.70;1.60;;;1.40;98.20;;;;;;5016392;28;20855;-71
2023/01/22 00:56:44;;;;;;;1.67;1.53;;;1.40;98.20;;;;;;5003827;28;20526;-72
2023/01/22 00:59:12;;;;;;;1.63;1.50;;;1.40;98.20;;;;;;5014990;28;20460;-72
2023/01/22 01:01:39;;;;;;;1.63;1.50;;;1.40;98.20;;;;;;4995194;28;21252;-71
2023/01/22 01:04:06;;;;;;;1.70;1.50;;;1.40;98.20;;;;;;5001675;28;20573;-73
2023/01/22 01:06:33;;;;;;;1.67;1.40;;;1.40;98.20;;;;;;5006184;28;20510;-71
2023/01/22 01:09:06;;;;;;;1.70;1.50;;;1.40;98.20;;;;;;5012455;28;20464;-73
2023/01/22 01:12:13;;;;;;;1.67;1.50;;;1.40;98.20;;;;;;4999324;28;20492;-72
2023/01/22 01:14:41;;;;;;;1.70;1.50;;;1.40;98.20;;;;;;4995972;28;20579;-72
2023/01/22 01:17:11;;;;;;;2.63;2.43;;;1.40;98.20;;;;;;5000315;28;20958;-74
2023/01/22 01:19:57;;;;;;;1.67;1.40;;;1.40;98.20;;;;;;5012607;28;20463;-73
2023/01/22 01:28:28;;;;;;;1.60;1.40;;;1.30;98.20;;;;;;5005114;28;20498;-72
2023/01/22 01:33:47;;;;;;;1.70;1.50;;;1.30;98.20;;;;;;4998139;28;20493;-72
2023/01/22 01:36:15;;;;;;;1.60;1.47;;;1.30;98.20;;;;;;5002703;28;20484;-74
2023/01/22 01:38:43;;;;;;;1.70;1.57;;;1.20;98.20;;;;;;5003769;28;20464;-71
2023/01/22 01:41:12;;;;;;;1.70;1.50;;;1.20;98.20;;;;;;4997082;28;21010;-72
2023/01/22 01:43:39;;;;;;;1.60;1.47;;;1.20;98.20;;;;;;5019728;28;20555;-72
2023/01/22 01:46:18;;;;;;;1.70;1.53;;;1.20;98.20;;;;;;5001061;28;20476;-72
2023/01/22 01:48:47;;;;;;;1.70;1.50;;;1.20;98.20;;;;;;5020457;28;20470;-71
2023/01/22 01:51:17;;;;;;;1.70;1.50;;;1.20;98.20;;;;;;5004575;28;20498;-71
2023/01/22 01:53:48;;;;;;;1.70;1.60;;;1.20;98.20;;;;;;5021988;28;20487;-72
2023/01/22 01:56:19;;;;;;;1.67;1.40;;;1.20;98.20;;;;;;4997578;28;20512;-72
2023/01/22 01:58:49;;;;;;;1.67;1.40;;;1.20;98.20;;;;;;5007776;28;20547;-74
2023/01/22 02:01:18;;;;;;;1.70;1.57;;;1.20;98.20;;;;;;5013651;28;20490;-73
2023/01/22 02:03:47;;;;;;;1.70;1.50;;;1.20;98.20;;;;;;5030106;28;20497;-73
2023/01/22 02:06:17;;;;;;;1.80;1.70;;;1.20;98.20;;;;;;5010131;28;20486;-72
2023/01/22 02:08:47;;;;;;;1.67;1.47;;;1.20;98.20;;;;;;5022391;28;20496;-72
2023/01/22 02:11:19;;;;;;;1.70;1.60;;;1.20;98.20;;;;;;5007376;28;20479;-73
2023/01/22 02:13:51;;;;;;;1.70;1.50;;;1.20;98.20;;;;;;5027830;28;20522;-72
2023/01/22 02:16:21;;;;;;;1.70;1.50;;;1.20;98.20;;;;;;5014153;28;20483;-73
2023/01/22 02:18:48;;;;;;;1.70;1.60;;;1.20;98.20;;;;;;5029621;28;20547;-73
2023/01/22 02:22:09;;;;;;;1.70;1.50;;;1.20;98.20;;;;;;5014622;28;20556;-73
2023/01/22 02:24:41;;;;;;;2.23;2.03;;;1.20;98.20;;;;;;5245005;23;20884;-71
2023/01/22 02:27:13;;;;;;;1.70;1.50;;;1.20;98.20;;;;;;5003255;28;20486;-73
2023/01/22 02:29:40;;;;;;;1.70;1.60;;;1.20;98.20;;;;;;5016138;28;20460;-71
2023/01/22 02:32:08;;;;;;;1.70;1.60;;;1.20;98.20;;;;;;5011899;28;20562;-72
2023/01/22 02:34:35;;;;;;;1.67;1.50;;;1.20;98.20;;;;;;5010785;28;20628;-72
2023/01/22 02:37:37;;;;;;;1.63;1.40;;;1.20;98.20;;;;;;5001256;28;20508;-72
2023/01/22 02:40:11;;;;;;;1.63;1.50;;;1.10;98.20;;;;;;5003087;28;20653;-72
2023/01/22 02:42:41;;;;;;;1.83;1.73;;;1.10;98.20;;;;;;5017277;28;20498;-73
2023/01/22 02:45:14;;;;;;;1.67;1.50;;;1.10;98.20;;;;;;5011094;28;20519;-72
2023/01/22 02:47:47;;;;;;;1.80;1.70;;;1.10;98.20;;;;;;4971022;28;20492;-73
2023/01/22 02:50:16;;;;;;;1.63;1.50;;;1.10;98.20;;;;;;5011150;28;20538;-72
2023/01/22 02:52:51;;;;;;;1.70;1.50;;;1.10;98.20;;;;;;5000797;28;20488;-72
2023/01/22 02:55:30;;;;;;;1.63;1.50;;;1.10;98.20;;;;;;5012330;28;20490;-72
2023/01/22 02:58:05;;;;;;;1.70;1.50;;;1.10;98.20;;;;;;4999476;28;20487;-72
2023/01/22 03:00:32;;;;;;;1.70;1.60;;;1.00;98.20;;;;;;5005899;28;20502;-71
2023/01/22 03:03:06;;;;;;;1.70;1.57;;;1.00;98.20;;;;;;4984829;28;20480;-71
2023/01/22 03:05:35;;;;;;;1.70;1.60;;;1.00;98.20;;;;;;5013494;28;20500;-73
2023/01/22 03:08:12;;;;;;;1.67;1.50;;;1.00;98.20;;;;;;5004225;28;20484;-72
2023/01/22 03:10:42;;;;;;;1.80;1.70;;;1.00;98.20;;;;;;5011450;28;20751;-72
2023/01/22 03:21:34;;;;;;;1.70;1.60;;;1.00;98.20;;;;;;5004499;28;20491;-72
2023/01/22 03:24:02;;;;;;;1.70;1.50;;;1.00;98.20;;;;;;5011016;28;20489;-72
2023/01/22 03:26:37;;;;;;;1.70;1.53;;;1.00;98.20;;;;;;4993849;28;20489;-73
2023/01/22 03:29:05;;;;;;;1.60;1.50;;;1.00;98.20;;;;;;5003255;28;20558;-72
2023/01/22 03:31:32;;;;;;;1.63;1.50;;;1.00;98.20;;;;;;4998250;28;20555;-72
2023/01/22 03:34:04;;;;;;;1.63;1.50;;;1.00;98.20;;;;;;5012208;28;20504;-73
2023/01/22 03:36:34;;;;;;;1.63;1.50;;;1.00;98.20;;;;;;5000735;28;20498;-71
2023/01/22 03:39:09;;;;;;;1.70;1.50;;;1.00;98.20;;;;;;5000015;28;20467;-74
2023/01/22 03:41:37;;;;;;;1.67;1.50;;;1.00;98.20;;;;;;4988060;28;20495;-72
2023/01/22 03:44:05;;;;;;;1.60;1.50;;;1.00;98.20;;;;;;5001392;28;20568;-72
2023/01/22 03:46:33;;;;;;;1.67;1.53;;;1.00;98.20;;;;;;4986929;28;20492;-71
2023/01/22 03:49:00;;;;;;;1.67;1.50;;;1.00;98.20;;;;;;4997571;28;20548;-72
2023/01/22 03:51:27;;;;;;;1.73;1.63;;;1.00;98.20;;;;;;4997214;28;21087;-72
2023/01/22 03:53:54;;;;;;;1.70;1.60;;;1.00;98.20;;;;;;5002401;28;20491;-71
2023/01/22 03:56:23;;;;;;;1.63;1.50;;;1.00;98.20;;;;;;4993420;28;20488;-72
2023/01/22 03:58:51;;;;;;;1.70;1.50;;;1.00;98.20;;;;;;5013057;28;20547;-71
2023/01/22 04:01:20;;;;;;;1.63;1.40;;;1.00;98.20;;;;;;5001048;28;20551;-72
2023/01/22 04:03:47;;;;;;;6.27;5.70;;;1.00;98.20;;;;;;4995683;28;20593;-72
2023/01/22 04:06:16;;;;;;;1.93;1.83;;;1.00;98.20;;;;;;4983094;28;20480;-72
2023/01/22 04:08:45;;;;;;;1.90;1.80;;;1.00;98.20;;;;;;4997653;28;20470;-72
2023/01/22 04:11:13;;;;;;;1.90;1.80;;;1.00;98.20;;;;;;4980438;28;21015;-72
2023/01/22 04:13:42;;;;;;;1.63;1.50;;;1.00;98.20;;;;;;5005376;28;20529;-72
2023/01/22 04:16:12;;;;;;;1.70;1.50;;;1.00;98.20;;;;;;4987139;28;20480;-72
2023/01/22 04:18:39;;;;;;;1.97;1.80;;;1.00;98.20;;;;;;4991230;28;20539;-71
2023/01/22 04:21:06;;;;;;;1.70;1.60;;;1.00;98.20;;;;;;4981880;28;20464;-72
2023/01/22 04:23:33;;;;;;;1.63;1.50;;;1.10;98.20;;;;;;5000639;28;20991;-71
2023/01/22 04:26:00;;;;;;;1.63;1.50;;;1.00;98.20;;;;;;4981367;28;20468;-71
2023/01/22 04:28:27;;;;;;;1.80;1.70;;;1.00;98.20;;;;;;4999741;28;20839;-72
2023/01/22 04:30:55;;;;;;;1.67;1.53;;;1.00;98.20;;;;;;4995240;28;20463;-71
2023/01/22 04:33:24;;;;;;;1.80;1.67;;;1.00;98.20;;;;;;5001433;28;20471;-71
2023/01/22 04:35:52;;;;;;;1.70;1.50;;;1.00;98.20;;;;;;4997227;28;20956;-71
2023/01/22 04:38:19;;;;;;;1.80;1.70;;;1.00;98.20;;;;;;5005269;28;20460;-71
2023/01/22 04:40:46;;;;;;;1.90;1.80;;;1.00;98.20;;;;;;5003614;28;20471;-71
2023/01/22 04:43:13;;;;;;;1.63;1.50;;;1.00;98.20;;;;;;4995122;28;21009;-72
2023/01/22 04:45:40;;;;;;;1.80;1.70;;;1.00;98.20;;;;;;4995856;28;21024;-72
2023/01/22 04:48:09;;;;;;;1.67;1.50;;;1.00;98.20;;;;;;4988228;28;20481;-72
2023/01/22 04:50:38;;;;;;;1.70;1.50;;;1.00;98.20;;;;;;5014337;28;20559;-72
2023/01/22 04:53:05;;;;;;;1.60;1.50;;;0.90;98.20;;;;;;4977381;28;20488;-72
2023/01/22 04:55:32;;;;;;;1.70;1.50;;;0.90;98.20;;;;;;4993328;28;20487;-71
2023/01/22 04:58:00;;;;;;;1.70;1.60;;;0.90;98.20;;;;;;4989231;28;20498;-71
2023/01/22 05:00:29;;;;;;;1.70;1.50;;;0.90;98.20;;;;;;5003356;28;20473;-72
2023/01/22 05:02:58;;;;;;;1.67;1.50;;;0.90;98.20;;;;;;4983940;28;20861;-71
2023/01/22 05:05:26;;;;;;;1.70;1.50;;;0.90;98.20;;;;;;4997396;28;20849;-72
2023/01/22 05:07:54;;;;;;;1.70;1.60;;;0.90;98.20;;;;;;4979644;28;21053;-72
2023/01/22 05:10:22;;;;;;;1.70;1.60;;;0.90;98.20;;;;;;4998030;28;20465;-71
2023/01/22 05:12:49;;;;;;;1.70;1.60;;;0.90;98.20;;;;;;4992825;28;20602;-72
2023/01/22 05:15:16;;;;;;;5.60;5.20;;;0.90;98.20;;;;;;5015559;28;20479;-71
2023/01/22 05:17:44;;;;;;;1.70;1.60;;;0.90;98.20;;;;;;4990655;28;20491;-72
2023/01/22 05:20:11;;;;;;;1.83;1.73;;;1.00;98.20;;;;;;5007454;28;20468;-72
2023/01/22 05:22:38;;;;;;;1.73;1.63;;;1.00;98.20;;;;;;4991689;28;21120;-72
2023/01/22 05:25:08;;;;;;;1.70;1.60;;;1.00;98.20;;;;;;4995041;28;20486;-71
2023/01/22 05:27:34;;;;;;;1.67;1.50;;;1.00;98.20;;;;;;4989155;28;20483;-72
2023/01/22 05:30:01;;;;;;;1.70;1.57;;;0.90;98.20;;;;;;5011535;28;20464;-71
2023/01/22 05:32:28;;;;;;;1.70;1.60;;;0.90;98.20;;;;;;4993952;28;20484;-72
2023/01/22 05:34:56;;;;;;;1.77;1.67;;;0.90;98.20;;;;;;5013680;28;20480;-71
2023/01/22 05:37:22;;;;;;;1.63;1.50;;;0.90;98.20;;;;;;4993591;28;20484;-71
2023/01/22 05:39:50;;;;;;;1.70;1.50;;;0.90;98.20;;;;;;4995914;28;20551;-71
2023/01/22 05:42:19;;;;;;;1.63;1.50;;;0.90;98.20;;;;;;4999303;28;20583;-72
2023/01/22 05:44:46;;;;;;;1.80;1.70;;;0.90;98.20;;;;;;5004646;28;20666;-72
2023/01/22 05:47:14;;;;;;;1.67;1.50;;;0.90;98.20;;;;;;4995619;28;20988;-71
2023/01/22 05:49:41;;;;;;;1.73;1.63;;;0.90;98.20;;;;;;4993064;28;20473;-72
2023/01/22 05:52:09;;;;;;;1.80;1.70;;;0.90;98.20;;;;;;4996858;28;20538;-71
2023/01/22 05:54:38;;;;;;;1.80;1.70;;;0.90;98.20;;;;;;5003765;28;20543;-71
2023/01/22 05:57:05;;;;;;;1.80;1.70;;;1.00;98.20;;;;;;4992278;28;20491;-72
2023/01/22 05:59:33;;;;;;;1.67;1.50;;;1.00;98.20;;;;;;5013768;28;20465;-72
2023/01/22 06:02:01;;;;;;;1.60;1.50;;;1.00;98.20;;;;;;4997263;28;20551;-72
2023/01/22 06:04:28;;;;;;;1.80;1.70;;;1.00;98.20;;;;;;4999501;28;20873;-71
2023/01/22 06:06:55;;;;;;;3.37;3.10;;;1.00;98.20;;;;;;4996602;28;20487;-71
2023/01/22 06:09:22;;;;;;;1.70;1.57;;;1.00;98.20;;;;;;5010406;28;20467;-71
2023/01/22 06:11:49;;;;;;;1.60;1.50;;;1.00;98.20;;;;;;4991427;28;20492;-71
2023/01/22 06:14:16;;;;;;;1.70;1.60;;;1.00;98.20;;;;;;4993972;28;20573;-71
2023/01/22 06:16:44;;;;;;;1.70;1.60;;;1.00;98.20;;;;;;4986809;28;20489;-72
2023/01/22 06:19:11;;;;;;;2.73;2.53;;;1.00;98.20;;;;;;4990327;28;20463;-72
2023/01/22 06:21:38;;;;;;;1.63;1.50;;;1.00;98.20;;;;;;4982882;28;20959;-71
2023/01/22 06:24:06;;;;;;;1.67;1.50;;;1.00;98.20;;;;;;5007933;28;21141;-72
2023/01/22 06:26:33;;;;;;;1.60;1.50;;;1.00;98.20;;;;;;4985522;28;20499;-72
2023/01/22 06:29:00;;;;;;;1.67;1.50;;;1.00;98.20;;;;;;5006183;28;20512;-71
2023/01/22 06:31:27;;;;;;;1.70;1.60;;;1.10;98.20;;;;;;4990681;28;20492;-71
2023/01/22 06:33:55;;;;;;;1.63;1.50;;;1.10;98.20;;;;;;4999874;28;20480;-72
2023/01/22 06:36:22;;;;;;;1.70;1.60;;;1.10;98.20;;;;;;4995522;28;20554;-71
2023/01/22 06:38:49;;;;;;;1.63;1.50;;;1.00;98.20;;;;;;5000525;28;20461;-72
2023/01/22 06:41:16;;;;;;;1.63;1.50;;;1.10;98.20;;;;;;4995876;28;20495;-72
2023/01/22 06:43:43;;;;;;;1.70;1.60;;;1.10;98.20;;;;;;5008480;28;20566;-72
2023/01/22 06:46:10;;;;;;;1.90;1.80;;;1.10;98.20;;;;;;4993910;28;20582;-72
2023/01/22 06:48:37;;;;;;;1.63;1.50;;;1.10;98.20;;;;;;5000961;28;20473;-71
2023/01/22 06:51:06;;;;;;;1.70;1.50;;;1.10;98.20;;;;;;4984123;28;20475;-71
2023/01/22 06:53:33;;;;;;;1.70;1.53;;;1.10;98.20;;;;;;5007864;28;20486;-72
2023/01/22 06:56:00;;;;;;;1.60;1.50;;;1.10;98.20;;;;;;5008748;28;20457;-71
2023/01/22 06:58:28;;;;;;;1.60;1.50;;;1.10;98.20;;;;;;4997334;28;20957;-71
2023/01/22 07:00:55;;;;;;;1.93;1.80;;;1.20;98.20;;;;;;4988766;28;20470;-72
2023/01/22 07:03:22;;;;;;;1.67;1.50;;;1.20;98.20;;;;;;5002959;28;20911;-71
2023/01/22 07:05:56;;;;;;;1.80;1.70;;;1.20;98.20;;;;;;4992209;28;20602;-71
2023/01/22 07:08:25;;;;;;;1.70;1.50;;;1.20;98.20;;;;;;5004767;28;20550;-72
2023/01/22 07:10:52;;;;;;;1.67;1.50;;;1.20;98.20;;;;;;4995170;28;20469;-71
2023/01/22 07:13:19;;;;;;;1.70;1.50;;;1.20;98.20;;;;;;4987267;28;20492;-71
2023/01/22 07:15:47;;;;;;;1.67;1.53;;;1.20;98.20;;;;;;5014131;28;20483;-72
2023/01/22 07:18:15;;;;;;;1.63;1.47;;;1.20;98.20;;;;;;4984361;28;20540;-72
2023/01/22 07:20:42;;;;;;;1.80;1.70;;;1.20;98.20;;;;;;4997375;28;20879;-72
2023/01/22 07:23:10;;;;;;;1.70;1.60;;;1.20;98.20;;;;;;4977091;28;20843;-73
2023/01/22 07:25:38;;;;;;;1.63;1.40;;;1.20;98.20;;;;;;5003541;28;20488;-72
2023/01/22 07:28:08;;;;;;;1.70;1.60;;;1.20;98.20;;;;;;4992762;28;20482;-72
2023/01/22 07:30:35;;;;;;;1.70;1.50;;;1.20;98.20;;;;;;5004724;28;20498;-72
2023/01/22 07:33:03;;;;;;;1.83;1.73;;;1.20;98.20;;;;;;4992597;28;20875;-72
2023/01/22 07:35:30;;;;;;;1.70;1.50;;;1.20;98.20;;;;;;4999649;28;20487;-72
2023/01/22 07:37:59;;;;;;;1.70;1.50;;;1.30;98.20;;;;;;4992343;28;20618;-72
2023/01/22 07:40:27;;;;;;;1.63;1.50;;;1.30;98.20;;;;;;5006664;28;20482;-72
2023/01/22 07:42:56;;;;;;;1.70;1.57;;;1.30;98.20;;;;;;4995041;28;20575;-72
2023/01/22 07:45:25;;;;;;;1.60;1.50;;;1.30;98.20;;;;;;5001312;28;21037;-72
2023/01/22 07:47:53;;;;;;;1.67;1.50;;;1.30;98.20;;;;;;4991007;28;20479;-72
2023/01/22 07:50:21;;;;;;;1.67;1.50;;;1.30;98.20;;;;;;5006523;28;20463;-72
2023/01/22 07:52:48;;;;;;;1.70;1.60;;;1.30;98.20;;;;;;4981988;28;20994;-73
2023/01/22 07:55:16;;;;;;;1.77;1.67;;;1.30;98.20;;;;;;5005876;28;20774;-72
2023/01/22 07:57:43;;;;;;;1.70;1.60;;;1.30;98.20;;;;;;4991452;28;20909;-73
2023/01/22 08:00:14;;;;;;;1.70;1.60;;;1.30;98.20;;;;;;5003218;28;20464;-72
2023/01/22 08:02:42;;;;;;;1.70;1.60;;;1.30;98.20;;;;;;4995040;28;20942;-72
2023/01/22 08:05:13;;;;;;;1.67;1.50;;;1.30;98.20;;;;;;5004696;28;20924;-72
2023/01/22 08:07:40;;;;;;;1.70;1.60;;;1.30;98.20;;;;;;4979772;28;20794;-72
2023/01/22 08:10:08;;;;;;;1.70;1.60;;;1.30;98.20;;;;;;5000056;28;20537;-72
2023/01/22 08:12:40;;;;;;;1.63;1.40;;;1.40;98.20;;;;;;4993740;28;20512;-72
2023/01/22 08:15:08;;;;;;;1.70;1.60;;;1.40;98.20;;;;;;5000315;28;20480;-73
2023/01/22 08:17:37;;;;;;;1.70;1.60;;;1.40;98.20;;;;;;4993012;28;20575;-72
2023/01/22 08:20:05;;;;;;;1.70;1.60;;;1.40;98.20;;;;;;5004957;28;20990;-72
2023/01/22 08:22:32;;;;;;;1.67;1.50;;;1.40;98.20;;;;;;4990726;28;20531;-71
2023/01/22 08:24:59;;;;;;;1.67;1.50;;;1.40;98.20;;;;;;5005163;28;21017;-72
2023/01/22 08:27:26;;;;;;;1.70;1.50;;;1.40;98.20;;;;;;4982969;28;20600;-71
2023/01/22 08:29:54;;;;;;;1.70;1.60;;;1.40;98.20;;;;;;5001994;28;20477;-71
2023/01/22 08:32:21;;;;;;;1.80;1.70;;;1.40;98.20;;;;;;4993785;28;20535;-72
2023/01/22 08:34:53;;;;;;;1.83;1.73;;;1.40;98.20;;;;;;4995769;28;20487;-72
2023/01/22 08:37:21;;;;;;;1.70;1.60;;;1.40;98.20;;;;;;4993997;28;20567;-72
2023/01/22 08:39:49;;;;;;;1.67;1.50;;;1.50;98.20;;;;;;5007233;28;20824;-73
2023/01/22 08:42:17;;;;;;;1.67;1.50;;;1.50;98.20;;;;;;4980649;28;20473;-73
2023/01/22 08:44:44;;;;;;;1.70;1.50;;;1.50;98.20;;;;;;4999988;28;20933;-72
2023/01/22 08:47:11;;;;;;;1.70;1.53;;;1.50;98.20;;;;;;4991511;28;20483;-72
2023/01/22 08:49:38;;;;;;;1.80;1.70;;;1.50;98.20;;;;;;5002097;28;20507;-72
2023/01/22 08:52:07;;;;;;;1.83;1.73;;;1.50;98.20;;;;;;4993615;28;20480;-71
2023/01/22 08:54:34;;;;;;;1.70;1.60;;;1.50;98.20;;;;;;5001606;28;20480;-72
2023/01/22 08:57:01;;;;;;;1.70;1.50;;;1.50;98.20;;;;;;4992921;28;20845;-71
2023/01/22 08:59:29;;;;;;;1.70;1.50;;;1.50;98.20;;;;;;4999375;28;20480;-72
2023/01/22 09:01:58;;;;;;;1.70;1.53;;;1.50;98.20;;;;;;4988874;28;20532;-71
2023/01/22 09:04:25;;;;;;;1.60;1.50;;;1.50;98.20;;;;;;5003093;28;20520;-72
2023/01/22 09:06:52;;;;;;;1.67;1.50;;;1.60;98.20;;;;;;4983953;28;20495;-71
2023/01/22 09:09:21;;;;;;;1.70;1.47;;;1.60;98.20;;;;;;4994607;28;21211;-71
2023/01/22 09:11:48;;;;;;;1.70;1.50;;;1.60;98.20;;;;;;4984353;28;20564;-71
2023/01/22 09:14:15;;;;;;;1.60;1.50;;;1.60;98.20;;;;;;4993802;28;20986;-72
2023/01/22 09:16:42;;;;;;;1.70;1.57;;;1.60;98.20;;;;;;4982249;28;20577;-72
2023/01/22 09:19:11;;;;;;;1.70;1.60;;;1.70;98.20;;;;;;4994810;28;20468;-72
2023/01/22 09:21:38;;;;;;;1.60;1.40;;;1.70;98.20;;;;;;4991479;28;20682;-70
2023/01/22 09:24:06;;;;;;;3.00;2.80;;;1.70;98.20;;;;;;4999513;28;20485;-71
2023/01/22 09:26:35;;;;;;;1.67;1.50;;;1.70;98.20;;;;;;4987926;28;20485;-72
2023/01/22 09:29:04;;;;;;;1.80;1.70;;;1.70;98.20;;;;;;4996693;28;20484;-72
2023/01/22 09:31:32;;;;;;;1.70;1.50;;;1.70;98.20;;;;;;4993034;28;20576;-72
2023/01/22 09:33:59;;;;;;;1.70;1.60;;;1.80;98.20;;;;;;4998212;28;20492;-72
2023/01/22 09:36:27;;;;;;;1.67;1.47;;;1.80;98.20;;;;;;4990217;28;21057;-71
2023/01/22 09:38:54;;;;;;;1.70;1.50;;;1.80;98.20;;;;;;4993600;28;20747;-71
2023/01/22 09:41:27;;;;;;;1.70;1.47;;;1.80;98.20;;;;;;4988599;28;20488;-72
2023/01/22 09:43:59;;;;;;;1.70;1.50;;;1.90;98.20;;;;;;4993826;28;20529;-71
2023/01/22 09:46:29;;;;;;;1.67;1.40;;;1.90;98.20;;;;;;4989372;28;20542;-72
2023/01/22 09:49:02;;;;;;;1.67;1.40;;;1.90;98.20;;;;;;4999011;28;20464;-72
2023/01/22 09:51:29;;;;;;;1.60;1.40;;;1.90;98.20;;;;;;4989348;28;20485;-72
2023/01/22 09:53:59;;;;;;;1.60;1.40;;;1.90;98.20;;;;;;4985668;28;20479;-72
2023/01/22 09:56:33;;;;;;;1.70;1.40;;;2.00;98.20;;;;;;4987852;28;20497;-72
2023/01/22 09:59:05;;;;;;;1.67;1.50;;;2.00;98.20;;;;;;4989821;28;20459;-71
2023/01/22 10:01:33;;;;;;;1.63;1.40;;;2.00;98.20;;;;;;4991536;28;20483;-72
2023/01/22 10:04:03;;;;;;;2.93;2.73;;;2.00;98.20;;;;;;5004073;28;20538;-72
2023/01/22 10:06:31;;;;;;;1.60;1.50;;;2.10;98.20;;;;;;4988147;28;21060;-72
2023/01/22 10:09:17;;;;;;;1.60;1.40;;;2.10;98.20;;;;;;4991673;28;20468;-72
2023/01/22 10:11:50;;;;;;;1.67;1.40;;;2.10;98.20;;;;;;4993044;28;20475;-71
2023/01/22 10:14:22;;;;;;;1.70;1.50;;;2.10;98.20;;;;;;5006259;28;20487;-72
2023/01/22 10:16:50;;;;;;;1.67;1.50;;;2.10;98.20;;;;;;4992506;28;20751;-72
2023/01/22 10:19:21;;;;;;;1.60;1.40;;;2.20;98.20;;;;;;5006302;28;20961;-73
2023/01/22 10:21:53;;;;;;;1.80;1.70;;;2.20;98.20;;;;;;4987920;28;20484;-72
2023/01/22 10:24:20;;;;;;;1.70;1.57;;;2.20;98.20;;;;;;4998674;28;20488;-72
2023/01/22 10:26:51;;;;;;;1.70;1.50;;;2.20;98.20;;;;;;4988939;28;21042;-72
2023/01/22 10:29:25;;;;;;;1.67;1.43;;;2.30;98.20;;;;;;5007078;28;20464;-72
2023/01/22 10:31:55;;;;;;;1.60;1.40;;;2.30;98.20;;;;;;4986188;28;20508;-72
2023/01/22 10:34:29;;;;;;;1.67;1.43;;;2.30;98.20;;;;;;5000442;28;20550;-72
2023/01/22 10:37:01;;;;;;;1.70;1.50;;;2.30;98.20;;;;;;4991672;28;20565;-72
2023/01/22 10:39:28;;;;;;;1.63;1.50;;;2.40;98.20;;;;;;5004312;28;20491;-72
2023/01/22 10:42:02;;;;;;;1.70;1.40;;;2.40;98.20;;;;;;4994246;28;20479;-72
2023/01/22 10:44:31;;;;;;;1.70;1.40;;;2.40;98.20;;;;;;5006754;28;20515;-71
2023/01/22 10:47:17;;;;;;;1.70;1.50;;;2.40;98.20;;;;;;4989762;28;20668;-72
2023/01/22 10:49:44;;;;;;;1.70;1.40;;;2.40;98.20;;;;;;5005727;28;20519;-72
2023/01/22 10:52:22;;;;;;;1.70;1.50;;;2.40;98.20;;;;;;4983907;28;20556;-71
2023/01/22 10:54:54;;;;;;;1.67;1.40;;;2.40;98.20;;;;;;5000882;28;21058;-72
2023/01/22 10:57:25;;;;;;;1.70;1.40;;;2.30;98.20;;;;;;4994494;28;20496;-72
2023/01/22 11:00:04;;;;;;;1.70;1.50;;;2.40;98.20;;;;;;4999309;28;20491;-72
2023/01/22 11:02:34;;;;;;;1.67;1.40;;;2.40;98.20;;;;;;4986736;28;21055;-71
2023/01/22 11:05:14;;;;;;;1.70;1.60;;;2.40;98.20;;;;;;5001826;28;20484;-72
2023/01/22 11:07:43;;;;;;;1.67;1.50;;;2.40;98.20;;;;;;4978655;28;20499;-71
2023/01/22 11:10:20;;;;;;;1.67;1.47;;;2.40;98.20;;;;;;5001869;28;20483;-72
2023/01/22 11:12:52;;;;;;;1.70;1.50;;;2.50;98.20;;;;;;4993841;28;20481;-72
2023/01/22 11:15:29;;;;;;;1.70;1.50;;;2.50;98.20;;;;;;5005758;28;20486;-72
2023/01/22 11:18:00;;;;;;;1.63;1.40;;;2.50;98.20;;;;;;4975692;28;20986;-71
2023/01/22 11:20:32;;;;;;;1.70;1.53;;;2.50;98.20;;;;;;5005334;28;20468;-71
2023/01/22 11:23:13;;;;;;;1.70;1.60;;;2.50;98.20;;;;;;4992440;28;20471;-70
2023/01/22 11:25:45;;;;;;;1.70;1.40;;;2.50;98.20;;;;;;5005502;28;20488;-72
2023/01/22 11:28:26;;;;;;;5.73;5.33;;;2.50;98.20;;;;;;4992222;28;20488;-70
2023/01/22 11:31:03;;;;;;;1.67;1.40;;;2.50;98.20;;;;;;4993239;28;20567;-71
2023/01/22 11:34:11;;;;;;;1.60;1.40;;;2.50;98.20;;;;;;4991935;28;20456;-72
2023/01/22 11:37:13;;;;;;;1.70;1.40;;;2.50;98.20;;;;;;4990833;28;20494;-73
2023/01/22 11:40:04;;;;;;;1.70;1.43;;;2.50;98.20;;;;;;4998132;28;20518;-73
2023/01/22 11:42:46;;;;;;;1.67;1.40;;;2.50;98.20;;;;;;4994092;28;20977;-72
2023/01/22 11:45:29;;;;;;;1.80;1.70;;;2.50;98.20;;;;;;5001623;28;20570;-72
2023/01/22 11:48:14;;;;;;;1.70;1.50;;;2.50;98.20;;;;;;4992030;28;20578;-72
2023/01/22 11:50:48;;;;;;;1.83;1.73;;;2.60;98.20;;;;;;5002767;28;20791;-72
2023/01/22 11:53:30;;;;;;;1.70;1.50;;;2.60;98.20;;;;;;4977584;28;20554;-73
2023/01/22 11:56:17;;;;;;;1.67;1.50;;;2.60;98.20;;;;;;4994306;28;20459;-72
2023/01/22 11:58:52;;;;;;;1.67;1.40;;;2.60;98.20;;;;;;5001467;28;20467;-74
2023/01/22 12:01:30;;;;;;;1.60;1.40;;;2.70;98.20;;;;;;4991146;28;20483;-72
2023/01/22 12:04:34;;;;;;;1.70;1.40;;;2.70;98.20;;;;;;5001954;28;20483;-72
2023/01/22 12:07:25;;;;;;;1.67;1.40;;;2.80;98.20;;;;;;4988765;28;20567;-73
2023/01/22 12:10:04;;;;;;;1.70;1.50;;;2.80;98.20;;;;;;4999793;28;20469;-72
2023/01/22 12:12:41;;;;;;;1.67;1.47;;;2.80;98.20;;;;;;4980860;28;20489;-72
2023/01/22 12:15:30;;;;;;;1.67;1.40;;;2.80;98.20;;;;;;5002622;28;20983;-72
2023/01/22 12:18:23;;;;;;;1.60;1.40;;;2.80;98.20;;;;;;4989339;28;20503;-72
2023/01/22 12:21:15;;;;;;;1.67;1.40;;;2.80;98.20;;;;;;4991941;28;20459;-72
2023/01/22 12:23:51;;;;;;;1.67;1.47;;;2.80;98.20;;;;;;5002750;28;20989;-72
2023/01/22 12:26:23;;;;;;;1.70;1.40;;;2.80;98.20;;;;;;4990401;28;20483;-72
2023/01/22 12:28:56;;;;;;;1.60;1.40;;;2.80;98.20;;;;;;5000273;28;20695;-72
2023/01/22 12:31:30;;;;;;;1.60;1.40;;;2.80;98.20;;;;;;4992394;28;20500;-72
2023/01/22 12:34:01;;;;;;;1.67;1.40;;;2.80;98.20;;;;;;5000876;28;20542;-72
2023/01/22 12:36:29;;;;;;;1.70;1.60;;;2.80;98.20;;;;;;4988661;28;21074;-72
2023/01/22 12:39:02;;;;;;;1.60;1.40;;;2.80;98.20;;;;;;5001483;28;20486;-72
2023/01/22 12:41:47;;;;;;;1.67;1.40;;;2.70;98.20;;;;;;4988435;28;20502;-72
2023/01/22 12:44:30;;;;;;;1.70;1.43;;;2.70;98.20;;;;;;4995432;28;21008;-72
2023/01/22 12:47:11;;;;;;;1.70;1.40;;;2.70;98.20;;;;;;4983624;28;20575;-73
2023/01/22 12:49:53;;;;;;;1.70;1.60;;;2.70;98.20;;;;;;4995794;28;20969;-71
2023/01/22 12:52:33;;;;;;;1.70;1.50;;;2.70;98.20;;;;;;4979675;28;20496;-72
2023/01/22 12:55:05;;;;;;;1.70;1.50;;;2.70;98.20;;;;;;5001068;28;20487;-72
2023/01/22 12:57:40;;;;;;;1.60;1.40;;;2.70;98.20;;;;;;4978089;28;20516;-72
2023/01/22 13:00:26;;;;;;;1.70;1.50;;;2.70;98.20;;;;;;5002057;28;20460;-72
2023/01/22 13:02:53;;;;;;;1.63;1.40;;;2.70;98.20;;;;;;4976254;28;20489;-72
2023/01/22 13:05:37;;;;;;;1.67;1.40;;;2.70;98.20;;;;;;5002816;28;20490;-72
2023/01/22 13:08:06;;;;;;;1.70;1.60;;;2.70;98.20;;;;;;4978119;28;20484;-73
2023/01/22 13:10:37;;;;;;;1.70;1.60;;;2.70;98.20;;;;;;5001611;28;20868;-72
2023/01/22 13:13:17;;;;;;;1.63;1.40;;;2.70;98.20;;;;;;4986794;28;20566;-72
2023/01/22 13:15:51;;;;;;;1.63;1.40;;;2.70;98.20;;;;;;4999853;28;20490;-72
2023/01/22 13:18:20;;;;;;;6.50;5.00;;;2.70;98.20;;;;;;4970068;28;20461;-71
2023/01/22 13:21:02;;;;;;;1.70;1.50;;;2.70;98.20;;;;;;5000247;28;20566;-72
2023/01/22 13:23:32;;;;;;;1.70;1.50;;;2.70;98.20;;;;;;4973431;28;20984;-72
2023/01/22 13:26:01;;;;;;;1.70;1.50;;;2.70;98.20;;;;;;4987773;28;20475;-72
2023/01/22 13:28:28;;;;;;;1.60;1.40;;;2.70;98.20;;;;;;4999253;28;20869;-70
2023/01/22 13:30:57;;;;;;;1.67;1.40;;;2.70;98.20;;;;;;4990427;28;20468;-72
2023/01/22 13:33:28;;;;;;;1.70;1.40;;;2.70;98.20;;;;;;5001263;28;20997;-71